GAF67T KEWR-KMDT
Flight info
| Callsign | GAF67T |
|---|---|
| Flight time | 0h 31m |
| Altitude | 22000 |
| Route | SBJ T430 ETX |
| Aircraft | A359/H-SDE2E3GHIJ3J4J5LM1ORWXY/LB1D1 |
Departure
| Time | 2026-05-09 11:27 |
|---|---|
| Airport | Newark Liberty International Airport (KEWR) |
Arrival
| Time | 2026-05-09 11:58 |
|---|---|
| Airport | Harrisburg International Airport (KMDT) |
| Time | Latitude | Longitude | Altitude | Speed | Heading |
|---|---|---|---|---|---|
| 2026-05-09 11:09 | 40.69186 | -74.17324 | 28 ft | 0 kts | 275° |
| 2026-05-09 11:19 | 40.69186 | -74.17303 | 27 ft | 4 kts | 255° |
| 2026-05-09 11:19 | 40.69198 | -74.17273 | 25 ft | 4 kts | 222° |
| 2026-05-09 11:19 | 40.69220 | -74.17253 | 27 ft | 4 kts | 208° |
| 2026-05-09 11:19 | 40.69243 | -74.17237 | 27 ft | 4 kts | 211° |
| 2026-05-09 11:20 | 40.69257 | -74.17221 | 28 ft | 0 kts | 126° |
| 2026-05-09 11:20 | 40.69264 | -74.17234 | 26 ft | 0 kts | 117° |
| 2026-05-09 11:23 | 40.69263 | -74.17232 | 26 ft | 2 kts | 117° |
| 2026-05-09 11:23 | 40.69241 | -74.17179 | 28 ft | 9 kts | 114° |
| 2026-05-09 11:23 | 40.69226 | -74.17088 | 28 ft | 11 kts | 85° |
| 2026-05-09 11:24 | 40.69276 | -74.17005 | 28 ft | 13 kts | 30° |
| 2026-05-09 11:24 | 40.69373 | -74.16942 | 29 ft | 15 kts | 26° |
| 2026-05-09 11:24 | 40.69397 | -74.16927 | 29 ft | 12 kts | 26° |
| 2026-05-09 11:24 | 40.69511 | -74.16853 | 29 ft | 21 kts | 26° |
| 2026-05-09 11:25 | 40.69655 | -74.16761 | 28 ft | 25 kts | 26° |
| 2026-05-09 11:25 | 40.69816 | -74.16658 | 27 ft | 27 kts | 26° |
| 2026-05-09 11:25 | 40.69874 | -74.16621 | 27 ft | 2 kts | 26° |
| 2026-05-09 11:25 | 40.69975 | -74.16556 | 27 ft | 16 kts | 26° |
| 2026-05-09 11:26 | 40.70044 | -74.16514 | 27 ft | 4 kts | 44° |
| 2026-05-09 11:26 | 40.70054 | -74.16419 | 32 ft | 17 kts | 119° |
| 2026-05-09 11:26 | 40.69951 | -74.16414 | 29 ft | 17 kts | 204° |
| 2026-05-09 11:26 | 40.69815 | -74.16498 | 27 ft | 45 kts | 205° |
| 2026-05-09 11:27 | 40.69150 | -74.16919 | 34 ft | 164 kts | 205° |
| 2026-05-09 11:27 | 40.68061 | -74.17634 | 1207 ft | 184 kts | 208° |
| 2026-05-09 11:27 | 40.66713 | -74.18174 | 1965 ft | 217 kts | 194° |
| 2026-05-09 11:27 | 40.65161 | -74.18796 | 2695 ft | 253 kts | 206° |
| 2026-05-09 11:28 | 40.63566 | -74.19811 | 3903 ft | 250 kts | 214° |
| 2026-05-09 11:28 | 40.62423 | -74.21400 | 5428 ft | 236 kts | 241° |
| 2026-05-09 11:28 | 40.61998 | -74.23502 | 6638 ft | 244 kts | 262° |
| 2026-05-09 11:28 | 40.61988 | -74.25762 | 7792 ft | 249 kts | 267° |
| 2026-05-09 11:29 | 40.62032 | -74.28029 | 8927 ft | 251 kts | 265° |
| 2026-05-09 11:29 | 40.61933 | -74.30328 | 10072 ft | 253 kts | 262° |
| 2026-05-09 11:29 | 40.61780 | -74.32726 | 10960 ft | 278 kts | 261° |
| 2026-05-09 11:29 | 40.61575 | -74.35392 | 11718 ft | 303 kts | 261° |
| 2026-05-09 11:30 | 40.61345 | -74.38193 | 12952 ft | 311 kts | 262° |
| 2026-05-09 11:30 | 40.61107 | -74.41048 | 14265 ft | 317 kts | 262° |
| 2026-05-09 11:30 | 40.60864 | -74.43944 | 15574 ft | 319 kts | 262° |
| 2026-05-09 11:30 | 40.60620 | -74.46858 | 16930 ft | 321 kts | 263° |
| 2026-05-09 11:31 | 40.60376 | -74.49781 | 18248 ft | 323 kts | 263° |
| 2026-05-09 11:31 | 40.60128 | -74.52737 | 19314 ft | 327 kts | 263° |
| 2026-05-09 11:31 | 40.59876 | -74.55733 | 20310 ft | 332 kts | 263° |
| 2026-05-09 11:31 | 40.59617 | -74.58797 | 21195 ft | 341 kts | 263° |
| 2026-05-09 11:32 | 40.59352 | -74.61917 | 21738 ft | 357 kts | 263° |
| 2026-05-09 11:32 | 40.59067 | -74.65266 | 21920 ft | 381 kts | 263° |
| 2026-05-09 11:32 | 40.58765 | -74.68807 | 21944 ft | 394 kts | 263° |
| 2026-05-09 11:32 | 40.58457 | -74.72402 | 21951 ft | 396 kts | 263° |
| 2026-05-09 11:33 | 40.58151 | -74.76003 | 21954 ft | 395 kts | 263° |
| 2026-05-09 11:33 | 40.57858 | -74.79595 | 21947 ft | 395 kts | 263° |
| 2026-05-09 11:33 | 40.57281 | -74.86783 | 21953 ft | 395 kts | 263° |
| 2026-05-09 11:34 | 40.56992 | -74.90372 | 21946 ft | 395 kts | 263° |
| 2026-05-09 11:34 | 40.56700 | -74.93972 | 21933 ft | 396 kts | 263° |
| 2026-05-09 11:34 | 40.56405 | -74.97578 | 21945 ft | 397 kts | 263° |
| 2026-05-09 11:34 | 40.56107 | -75.01193 | 21950 ft | 397 kts | 263° |
| 2026-05-09 11:35 | 40.55810 | -75.04803 | 21951 ft | 397 kts | 263° |
| 2026-05-09 11:35 | 40.55514 | -75.08414 | 21959 ft | 397 kts | 263° |
| 2026-05-09 11:35 | 40.55213 | -75.12028 | 21952 ft | 397 kts | 263° |
| 2026-05-09 11:35 | 40.54913 | -75.15633 | 21957 ft | 397 kts | 264° |
| 2026-05-09 11:36 | 40.54829 | -75.19019 | 21958 ft | 398 kts | 270° |
| 2026-05-09 11:36 | 40.54931 | -75.22011 | 21958 ft | 398 kts | 271° |
| 2026-05-09 11:36 | 40.55127 | -75.25651 | 21955 ft | 399 kts | 272° |
| 2026-05-09 11:36 | 40.55368 | -75.29240 | 21955 ft | 399 kts | 273° |
| 2026-05-09 11:37 | 40.55635 | -75.32862 | 21964 ft | 399 kts | 274° |
| 2026-05-09 11:37 | 40.55907 | -75.36491 | 21961 ft | 399 kts | 274° |
| 2026-05-09 11:37 | 40.56173 | -75.40121 | 21964 ft | 399 kts | 273° |
| 2026-05-09 11:37 | 40.56432 | -75.43761 | 21969 ft | 399 kts | 273° |
| 2026-05-09 11:38 | 40.56686 | -75.47392 | 21962 ft | 399 kts | 273° |
| 2026-05-09 11:38 | 40.56936 | -75.51031 | 21959 ft | 399 kts | 273° |
| 2026-05-09 11:38 | 40.57183 | -75.54652 | 21854 ft | 391 kts | 273° |
| 2026-05-09 11:38 | 40.57424 | -75.58171 | 21102 ft | 382 kts | 273° |
| 2026-05-09 11:39 | 40.57660 | -75.61660 | 19942 ft | 386 kts | 272° |
| 2026-05-09 11:39 | 40.57896 | -75.65186 | 18983 ft | 385 kts | 272° |
| 2026-05-09 11:39 | 40.58128 | -75.68657 | 18403 ft | 376 kts | 272° |
| 2026-05-09 11:40 | 40.58508 | -75.74160 | 17810 ft | 350 kts | 272° |
| 2026-05-09 11:40 | 40.58701 | -75.77281 | 17493 ft | 335 kts | 269° |
| 2026-05-09 11:40 | 40.58025 | -75.81066 | 17103 ft | 315 kts | 242° |
| 2026-05-09 11:40 | 40.56713 | -75.83311 | 16772 ft | 303 kts | 233° |
| 2026-05-09 11:41 | 40.56059 | -75.84913 | 16418 ft | 299 kts | 250° |
| 2026-05-09 11:41 | 40.55561 | -75.87512 | 16162 ft | 288 kts | 257° |
| 2026-05-09 11:41 | 40.55209 | -75.90058 | 15901 ft | 278 kts | 258° |
| 2026-05-09 11:41 | 40.54882 | -75.92539 | 15501 ft | 274 kts | 258° |
| 2026-05-09 11:42 | 40.54558 | -75.95010 | 15000 ft | 273 kts | 258° |
| 2026-05-09 11:42 | 40.54241 | -75.97475 | 14513 ft | 273 kts | 258° |
| 2026-05-09 11:42 | 40.53927 | -75.99940 | 14031 ft | 274 kts | 258° |
| 2026-05-09 11:42 | 40.53618 | -76.02404 | 13562 ft | 273 kts | 258° |
| 2026-05-09 11:43 | 40.53314 | -76.04862 | 13070 ft | 271 kts | 258° |
| 2026-05-09 11:43 | 40.53020 | -76.07302 | 12579 ft | 270 kts | 258° |
| 2026-05-09 11:43 | 40.52736 | -76.09728 | 12084 ft | 268 kts | 258° |
| 2026-05-09 11:43 | 40.52457 | -76.12153 | 11618 ft | 267 kts | 258° |
| 2026-05-09 11:44 | 40.52188 | -76.14549 | 11089 ft | 261 kts | 258° |
| 2026-05-09 11:44 | 40.51934 | -76.16681 | 10328 ft | 259 kts | 258° |
| 2026-05-09 11:44 | 40.51635 | -76.19017 | 9452 ft | 258 kts | 258° |
| 2026-05-09 11:44 | 40.51358 | -76.21344 | 8533 ft | 258 kts | 258° |
| 2026-05-09 11:45 | 40.51110 | -76.23663 | 7714 ft | 255 kts | 258° |
| 2026-05-09 11:45 | 40.50865 | -76.25959 | 6942 ft | 252 kts | 258° |
| 2026-05-09 11:45 | 40.50615 | -76.28224 | 6345 ft | 249 kts | 258° |
| 2026-05-09 11:45 | 40.50366 | -76.30470 | 6052 ft | 251 kts | 258° |
| 2026-05-09 11:46 | 40.50116 | -76.32702 | 5991 ft | 250 kts | 258° |
| 2026-05-09 11:46 | 40.49860 | -76.34959 | 5988 ft | 249 kts | 258° |
| 2026-05-09 11:46 | 40.49603 | -76.37212 | 5986 ft | 249 kts | 258° |
| 2026-05-09 11:46 | 40.49348 | -76.39456 | 5992 ft | 249 kts | 258° |
| 2026-05-09 11:47 | 40.49091 | -76.41714 | 5995 ft | 249 kts | 258° |
| 2026-05-09 11:47 | 40.48834 | -76.43959 | 5989 ft | 249 kts | 258° |
| 2026-05-09 11:47 | 40.48581 | -76.46187 | 5987 ft | 249 kts | 258° |
| 2026-05-09 11:47 | 40.48326 | -76.48435 | 5988 ft | 248 kts | 258° |
| 2026-05-09 11:48 | 40.48074 | -76.50674 | 5994 ft | 249 kts | 259° |
| 2026-05-09 11:48 | 40.47807 | -76.52926 | 5990 ft | 249 kts | 257° |
| 2026-05-09 11:48 | 40.47341 | -76.55097 | 5954 ft | 247 kts | 246° |
| 2026-05-09 11:48 | 40.46656 | -76.57163 | 5534 ft | 246 kts | 244° |
| 2026-05-09 11:49 | 40.45937 | -76.59202 | 5045 ft | 245 kts | 244° |
| 2026-05-09 11:49 | 40.45217 | -76.61221 | 4621 ft | 243 kts | 244° |
| 2026-05-09 11:49 | 40.44497 | -76.63218 | 4174 ft | 241 kts | 244° |
| 2026-05-09 11:49 | 40.43782 | -76.65177 | 3691 ft | 241 kts | 244° |
| 2026-05-09 11:50 | 40.43043 | -76.67145 | 3233 ft | 240 kts | 244° |
| 2026-05-09 11:50 | 40.42298 | -76.69099 | 3012 ft | 238 kts | 244° |
| 2026-05-09 11:50 | 40.41558 | -76.71048 | 2978 ft | 239 kts | 244° |
| 2026-05-09 11:50 | 40.40828 | -76.72979 | 2994 ft | 240 kts | 243° |
| 2026-05-09 11:51 | 40.40087 | -76.74966 | 2973 ft | 238 kts | 244° |
| 2026-05-09 11:51 | 40.39364 | -76.76895 | 2993 ft | 239 kts | 244° |
| 2026-05-09 11:51 | 40.38622 | -76.78851 | 2994 ft | 239 kts | 244° |
| 2026-05-09 11:51 | 40.37878 | -76.80803 | 3012 ft | 239 kts | 243° |
| 2026-05-09 11:52 | 40.37147 | -76.82726 | 3008 ft | 230 kts | 244° |
| 2026-05-09 11:52 | 40.36424 | -76.84565 | 3012 ft | 225 kts | 244° |
| 2026-05-09 11:52 | 40.35717 | -76.86381 | 3012 ft | 224 kts | 244° |
| 2026-05-09 11:52 | 40.35008 | -76.88203 | 3011 ft | 222 kts | 244° |
| 2026-05-09 11:53 | 40.34310 | -76.90007 | 3010 ft | 222 kts | 244° |
| 2026-05-09 11:53 | 40.33612 | -76.91815 | 3010 ft | 222 kts | 244° |
| 2026-05-09 11:53 | 40.32913 | -76.93621 | 3013 ft | 221 kts | 244° |
| 2026-05-09 11:53 | 40.32020 | -76.95258 | 3018 ft | 224 kts | 223° |
| 2026-05-09 11:54 | 40.30583 | -76.96107 | 3016 ft | 234 kts | 193° |
| 2026-05-09 11:54 | 40.28949 | -76.95849 | 3013 ft | 245 kts | 163° |
| 2026-05-09 11:54 | 40.27457 | -76.94724 | 2937 ft | 246 kts | 150° |
| 2026-05-09 11:54 | 40.26124 | -76.93432 | 2783 ft | 236 kts | 147° |
| 2026-05-09 11:55 | 40.24863 | -76.92142 | 2658 ft | 221 kts | 147° |
| 2026-05-09 11:56 | 40.22435 | -76.84342 | 1569 ft | 158 kts | 115° |
| 2026-05-09 11:56 | 40.21985 | -76.82951 | 1109 ft | 169 kts | 116° |
| 2026-05-09 11:56 | 40.21430 | -76.81708 | 992 ft | 149 kts | 122° |
| 2026-05-09 11:57 | 40.20974 | -76.80530 | 833 ft | 142 kts | 115° |
| 2026-05-09 11:57 | 40.20528 | -76.79379 | 635 ft | 142 kts | 117° |
| 2026-05-09 11:57 | 40.20073 | -76.78230 | 410 ft | 142 kts | 117° |
| 2026-05-09 11:57 | 40.19633 | -76.77092 | 319 ft | 128 kts | 116° |
| 2026-05-09 11:58 | 40.19327 | -76.76284 | 317 ft | 60 kts | 116° |
| 2026-05-09 11:58 | 40.19155 | -76.75842 | 319 ft | 50 kts | 117° |
| 2026-05-09 11:58 | 40.19107 | -76.75596 | 315 ft | 12 kts | 69° |
| 2026-05-09 11:58 | 40.19135 | -76.75561 | 317 ft | 0 kts | 23° |
| 2026-05-09 11:59 | 40.19225 | -76.75499 | 314 ft | 20 kts | 28° |
| 2026-05-09 11:59 | 40.19271 | -76.75467 | 316 ft | 0 kts | 27° |
| 2026-05-09 11:59 | 40.19274 | -76.75466 | 316 ft | 6 kts | 19° |
| 2026-05-09 11:59 | 40.19349 | -76.75482 | 316 ft | 10 kts | 337° |
| 2026-05-09 12:00 | 40.19392 | -76.75478 | 318 ft | 0 kts | 18° |
| 2026-05-09 12:00 | 40.19395 | -76.75477 | 317 ft | 0 kts | 17° |
| 2026-05-09 12:01 | 40.19396 | -76.75477 | 317 ft | 0 kts | 17° |
| 2026-05-09 12:01 | 40.19398 | -76.75476 | 315 ft | 0 kts | 17° |
| 2026-05-09 12:01 | 40.19410 | -76.75472 | 315 ft | 9 kts | 14° |
| 2026-05-09 12:02 | 40.19427 | -76.75467 | 316 ft | 0 kts | 14° |
| 2026-05-09 12:02 | 40.19417 | -76.75468 | 318 ft | 0 kts | 15° |
| 2026-05-09 12:04 | 40.19442 | -76.75495 | 314 ft | 0 kts | 54° |